Time;durP1;ratioP1;P1;durP2;ratioP2;P2;SDS_P1;SDS_P2;PMS_P1;PMS_P2;Temp;Humidity;BMP_temperature;BMP_pressure;BME280_temperature;BME280_humidity;BME280_pressure;Samples;Min_cycle;Max_cycle;Signal;HPM_P1;HPM_P2
2023/08/20 00:00:52;;;;;;;2.17;1.92;;;24.50;1.00;;;;;;5114677;28;20939;-48
2023/08/20 00:03:19;;;;;;;3.47;2.05;;;24.50;1.00;;;;;;5114742;28;20427;-50
2023/08/20 00:05:47;;;;;;;2.00;1.70;;;24.60;1.00;;;;;;5114826;28;20424;-50
2023/08/20 00:08:13;;;;;;;3.60;2.08;;;24.60;1.00;;;;;;5114463;28;20926;-53
2023/08/20 00:10:40;;;;;;;2.35;1.80;;;24.60;1.00;;;;;;5113654;28;20501;-51
2023/08/20 00:13:07;;;;;;;3.10;1.92;;;24.60;1.00;;;;;;5114016;28;20771;-52
2023/08/20 00:15:36;;;;;;;2.35;2.10;;;24.60;1.00;;;;;;5115233;28;20831;-52
2023/08/20 00:18:05;;;;;;;2.90;2.07;;;24.60;1.00;;;;;;5117862;28;20419;-52
2023/08/20 00:20:33;;;;;;;2.50;2.20;;;24.60;1.00;;;;;;5117852;28;20435;-50
2023/08/20 00:23:00;;;;;;;3.20;1.85;;;24.60;1.00;;;;;;5117049;28;20416;-49
2023/08/20 00:25:28;;;;;;;2.40;1.73;;;24.60;1.00;;;;;;5117797;28;20774;-49
2023/08/20 00:27:55;;;;;;;3.40;2.67;;;24.60;1.00;;;;;;5117672;28;20420;-51
2023/08/20 00:30:22;;;;;;;4.20;2.65;;;24.60;1.00;;;;;;5116722;28;20477;-46
2023/08/20 00:32:51;;;;;;;4.50;2.50;;;24.70;1.00;;;;;;5117439;28;20430;-47
2023/08/20 00:35:18;;;;;;;2.50;2.30;;;24.70;1.00;;;;;;5117263;28;20428;-49
2023/08/20 00:37:45;;;;;;;2.90;2.33;;;24.70;1.00;;;;;;5117348;28;20408;-53
2023/08/20 00:40:12;;;;;;;3.45;2.40;;;24.60;1.00;;;;;;5117709;28;20455;-54
2023/08/20 00:42:40;;;;;;;2.95;2.65;;;24.60;1.00;;;;;;5117644;28;20420;-50
2023/08/20 00:45:07;;;;;;;2.80;2.22;;;24.50;1.00;;;;;;5117335;28;20420;-51
2023/08/20 00:47:36;;;;;;;3.00;2.33;;;24.50;1.00;;;;;;5115985;28;20500;-47
2023/08/20 00:50:06;;;;;;;2.90;1.75;;;24.50;1.00;;;;;;5116489;28;20828;-50
2023/08/20 00:52:34;;;;;;;2.28;1.80;;;24.50;1.00;;;;;;5117193;28;20838;-50
2023/08/20 00:55:07;;;;;;;2.47;2.08;;;24.50;1.00;;;;;;5117076;28;20447;-48
2023/08/20 00:57:35;;;;;;;3.25;2.30;;;24.50;1.00;;;;;;5117148;28;20485;-51
2023/08/20 01:00:06;;;;;;;3.33;1.90;;;24.50;1.00;;;;;;5115761;28;20839;-51
2023/08/20 01:02:34;;;;;;;3.30;2.20;;;24.40;1.00;;;;;;5112662;28;20434;-52
2023/08/20 01:05:02;;;;;;;3.60;2.55;;;24.40;1.00;;;;;;5112648;28;20983;-48
2023/08/20 01:07:37;;;;;;;3.70;2.10;;;24.40;1.00;;;;;;5112580;28;20416;-52
2023/08/20 01:10:11;;;;;;;3.05;2.10;;;24.30;1.00;;;;;;5113793;28;20416;-51
2023/08/20 01:12:39;;;;;;;2.60;2.40;;;24.30;1.00;;;;;;5115100;28;20428;-52
2023/08/20 01:15:08;;;;;;;2.60;2.40;;;24.30;1.00;;;;;;5115602;28;20712;-52
2023/08/20 01:17:35;;;;;;;3.65;2.15;;;24.30;1.00;;;;;;5116444;28;20424;-50
2023/08/20 01:20:03;;;;;;;2.53;2.10;;;24.30;1.00;;;;;;5116034;28;20435;-49
2023/08/20 01:23:05;;;;;;;3.95;2.22;;;24.30;1.00;;;;;;5116516;28;20432;-51
2023/08/20 01:25:47;;;;;;;2.50;2.17;;;24.30;1.00;;;;;;5116491;28;20508;-48
2023/08/20 01:28:25;;;;;;;3.70;2.40;;;24.30;1.00;;;;;;5117214;28;20492;-49
2023/08/20 01:30:54;;;;;;;3.28;2.13;;;24.30;1.00;;;;;;5116057;28;20477;-52
2023/08/20 01:33:21;;;;;;;3.97;2.17;;;24.30;1.00;;;;;;5116358;28;20428;-49
2023/08/20 01:35:48;;;;;;;2.70;2.15;;;24.20;1.00;;;;;;5116258;28;20428;-53
2023/08/20 01:38:15;;;;;;;3.40;2.70;;;24.20;1.00;;;;;;5116805;28;20416;-47
2023/08/20 01:40:42;;;;;;;2.40;2.20;;;24.20;1.00;;;;;;5116683;28;20873;-53
2023/08/20 01:43:09;;;;;;;2.80;2.20;;;24.20;1.00;;;;;;5116689;28;20484;-50
2023/08/20 01:45:37;;;;;;;3.05;1.95;;;24.20;1.00;;;;;;5116281;28;20492;-48
2023/08/20 01:48:05;;;;;;;3.10;2.58;;;24.20;1.00;;;;;;5116188;28;20420;-51
2023/08/20 01:50:32;;;;;;;3.10;2.30;;;24.10;1.00;;;;;;5116153;28;20424;-46
2023/08/20 01:52:59;;;;;;;2.47;1.90;;;24.10;1.00;;;;;;5116561;28;20412;-52
2023/08/20 01:55:26;;;;;;;3.35;2.25;;;24.10;1.00;;;;;;5117083;28;20504;-47
2023/08/20 01:57:53;;;;;;;4.10;2.30;;;24.00;1.00;;;;;;5115957;28;20427;-50
2023/08/20 02:00:20;;;;;;;3.00;2.70;;;24.00;1.00;;;;;;5115992;28;20420;-50
2023/08/20 02:02:48;;;;;;;2.60;2.00;;;24.00;1.00;;;;;;5116283;28;20416;-53
2023/08/20 02:05:15;;;;;;;2.58;2.38;;;24.00;1.00;;;;;;5116410;28;20412;-51
2023/08/20 02:07:42;;;;;;;2.80;2.60;;;24.10;1.00;;;;;;5115758;28;20555;-52
2023/08/20 02:10:10;;;;;;;3.60;2.50;;;24.00;1.00;;;;;;5116073;28;20786;-49
2023/08/20 02:12:37;;;;;;;2.40;2.20;;;24.00;1.00;;;;;;5115936;28;20514;-53
2023/08/20 02:15:04;;;;;;;2.28;2.08;;;24.00;1.00;;;;;;5115647;28;20835;-50
2023/08/20 02:17:31;;;;;;;2.67;2.42;;;24.00;1.00;;;;;;5115114;28;20656;-52
2023/08/20 02:20:00;;;;;;;2.80;2.17;;;24.00;1.00;;;;;;5115300;28;20469;-46
2023/08/20 02:22:29;;;;;;;2.78;2.40;;;23.90;1.00;;;;;;5115793;28;20493;-53
2023/08/20 02:24:56;;;;;;;4.40;2.05;;;23.90;1.00;;;;;;5116034;28;20423;-51
2023/08/20 02:27:23;;;;;;;2.40;2.20;;;23.90;1.00;;;;;;5107800;28;20972;-49
2023/08/20 02:29:51;;;;;;;3.72;2.30;;;23.80;1.00;;;;;;5114649;28;20424;-50
2023/08/20 02:32:18;;;;;;;2.70;1.90;;;23.80;1.00;;;;;;5114896;28;20719;-48
2023/08/20 02:34:49;;;;;;;3.60;2.60;;;23.80;1.40;;;;;;5115349;28;20420;-51
2023/08/20 02:37:17;;;;;;;3.00;2.80;;;23.80;4.90;;;;;;5115370;28;20480;-49
2023/08/20 02:39:44;;;;;;;2.47;2.28;;;23.70;2.50;;;;;;5114675;28;20424;-53
2023/08/20 02:42:11;;;;;;;3.60;2.90;;;23.70;4.40;;;;;;5114326;28;20884;-50
2023/08/20 02:44:38;;;;;;;2.90;2.15;;;23.70;5.40;;;;;;5115099;28;20904;-49
2023/08/20 02:47:05;;;;;;;2.90;2.20;;;23.60;7.60;;;;;;5115058;28;20469;-49
2023/08/20 02:49:32;;;;;;;2.67;2.17;;;23.60;9.50;;;;;;5114553;28;20416;-54
2023/08/20 02:51:59;;;;;;;2.95;2.42;;;23.60;10.00;;;;;;5113848;28;20423;-52
2023/08/20 02:54:29;;;;;;;2.80;2.40;;;23.60;13.60;;;;;;5113490;28;20533;-52
2023/08/20 02:56:56;;;;;;;3.58;2.35;;;23.50;18.60;;;;;;5114623;28;20485;-48
2023/08/20 02:59:22;;;;;;;2.75;2.40;;;23.50;18.50;;;;;;5114848;28;20838;-47
2023/08/20 03:01:50;;;;;;;3.28;2.30;;;23.60;35.50;;;;;;5114683;28;20541;-52
2023/08/20 03:04:17;;;;;;;2.53;2.10;;;23.60;34.00;;;;;;5114837;28;20835;-51
2023/08/20 03:06:44;;;;;;;2.60;2.40;;;23.60;28.80;;;;;;5114759;28;20420;-49
2023/08/20 03:09:11;;;;;;;3.50;2.33;;;23.60;27.10;;;;;;5114419;28;20518;-51
2023/08/20 03:11:40;;;;;;;4.18;2.63;;;23.70;21.30;;;;;;5113192;28;20503;-53
2023/08/20 03:14:07;;;;;;;2.30;2.00;;;23.60;18.80;;;;;;5113361;28;20416;-47
2023/08/20 03:16:34;;;;;;;3.73;2.33;;;23.60;16.90;;;;;;5113645;28;20465;-50
2023/08/20 03:19:02;;;;;;;4.10;2.45;;;23.50;13.10;;;;;;5112661;28;20454;-47
2023/08/20 03:21:29;;;;;;;2.20;1.90;;;23.50;14.60;;;;;;5112531;28;20875;-48
2023/08/20 03:23:56;;;;;;;3.13;2.47;;;23.50;18.60;;;;;;5112777;28;20416;-46
2023/08/20 03:26:23;;;;;;;3.20;2.20;;;23.40;20.50;;;;;;5113343;28;20556;-50
2023/08/20 03:28:51;;;;;;;2.50;2.30;;;23.40;17.90;;;;;;5113606;28;20478;-53
2023/08/20 03:31:19;;;;;;;2.63;2.20;;;23.40;18.00;;;;;;5113461;28;20421;-52
2023/08/20 03:33:46;;;;;;;2.78;2.28;;;23.40;16.80;;;;;;5113928;28;20768;-52
2023/08/20 03:36:13;;;;;;;3.03;2.72;;;23.40;30.60;;;;;;5113157;28;20935;-53
2023/08/20 03:38:40;;;;;;;2.47;2.08;;;23.40;41.10;;;;;;5114088;28;20843;-49
2023/08/20 03:41:07;;;;;;;2.40;2.20;;;23.40;39.40;;;;;;5114912;28;20475;-47
2023/08/20 03:43:34;;;;;;;4.55;2.53;;;23.40;32.40;;;;;;5114791;28;20412;-47
2023/08/20 03:46:03;;;;;;;2.45;2.25;;;23.40;29.80;;;;;;5115169;28;20432;-50
2023/08/20 03:48:30;;;;;;;2.90;2.60;;;23.40;36.40;;;;;;5115088;28;20420;-48
2023/08/20 03:50:57;;;;;;;3.60;2.55;;;23.40;31.80;;;;;;5118119;28;20420;-47
2023/08/20 03:53:24;;;;;;;3.08;2.78;;;23.30;30.40;;;;;;5118747;28;20481;-47
2023/08/20 03:55:51;;;;;;;3.72;2.20;;;23.30;33.20;;;;;;5116670;28;20420;-49
2023/08/20 03:58:18;;;;;;;2.97;2.20;;;23.30;36.10;;;;;;5118439;28;20484;-52
2023/08/20 04:00:46;;;;;;;3.47;2.70;;;23.30;36.80;;;;;;5118180;28;20866;-52
2023/08/20 04:03:14;;;;;;;4.05;2.95;;;23.30;44.50;;;;;;5118368;28;20785;-47
2023/08/20 04:05:41;;;;;;;2.70;2.50;;;23.20;44.10;;;;;;5118671;28;20431;-51
2023/08/20 04:08:08;;;;;;;3.20;2.37;;;23.20;42.30;;;;;;5118024;28;20420;-49
2023/08/20 04:10:35;;;;;;;3.22;2.53;;;23.30;41.90;;;;;;5118541;28;20757;-48
2023/08/20 04:13:02;;;;;;;3.60;2.35;;;23.30;38.60;;;;;;5117959;28;20412;-52
2023/08/20 04:15:29;;;;;;;3.85;2.10;;;23.30;35.50;;;;;;5117967;28;20424;-47
2023/08/20 04:17:56;;;;;;;3.60;2.47;;;23.40;42.40;;;;;;5117485;28;20424;-48
2023/08/20 04:20:25;;;;;;;2.47;2.28;;;23.30;42.30;;;;;;5117864;28;20420;-47
2023/08/20 04:22:52;;;;;;;2.90;2.60;;;23.30;51.80;;;;;;5118445;28;20431;-47
2023/08/20 04:25:19;;;;;;;4.15;2.40;;;23.20;56.60;;;;;;5117516;28;20921;-47
2023/08/20 04:27:45;;;;;;;2.97;2.40;;;23.20;54.30;;;;;;5117577;28;20500;-52
2023/08/20 04:30:13;;;;;;;2.92;2.60;;;23.20;53.10;;;;;;5117482;28;20431;-45
2023/08/20 04:32:40;;;;;;;2.78;2.58;;;23.20;46.10;;;;;;5117691;28;20424;-45
2023/08/20 04:35:08;;;;;;;2.85;2.55;;;23.10;50.40;;;;;;5118077;28;20829;-49
2023/08/20 04:37:36;;;;;;;3.83;2.42;;;23.10;48.10;;;;;;5117627;28;20412;-48
2023/08/20 04:40:05;;;;;;;2.13;1.92;;;23.10;40.40;;;;;;5118461;28;20440;-51
2023/08/20 04:42:32;;;;;;;3.00;2.40;;;23.10;44.70;;;;;;5117627;28;20467;-51
2023/08/20 04:44:59;;;;;;;2.78;2.58;;;23.00;43.10;;;;;;5118137;28;20493;-46
2023/08/20 04:47:26;;;;;;;2.38;2.10;;;23.10;40.90;;;;;;5113422;28;20776;-48
2023/08/20 04:49:53;;;;;;;2.87;2.60;;;23.10;37.30;;;;;;5111425;28;20408;-49
2023/08/20 04:52:21;;;;;;;3.50;2.20;;;23.10;43.80;;;;;;5116737;28;20827;-48
2023/08/20 04:54:49;;;;;;;3.30;2.28;;;23.10;50.60;;;;;;5117900;28;20420;-48
2023/08/20 04:57:16;;;;;;;3.15;2.38;;;23.10;42.20;;;;;;5117116;28;20428;-46
2023/08/20 04:59:45;;;;;;;3.50;2.50;;;23.20;37.40;;;;;;5116330;28;20451;-49
2023/08/20 05:02:12;;;;;;;2.63;2.43;;;23.20;29.00;;;;;;5114992;28;20435;-50
2023/08/20 05:04:39;;;;;;;3.63;2.50;;;23.30;25.60;;;;;;5115565;28;20412;-49
2023/08/20 05:07:06;;;;;;;3.38;2.90;;;23.30;21.40;;;;;;5116626;28;20509;-47
2023/08/20 05:09:34;;;;;;;2.50;2.30;;;23.30;14.10;;;;;;5115588;28;20908;-50
2023/08/20 05:12:03;;;;;;;2.83;2.00;;;23.20;16.60;;;;;;5115057;28;20420;-47
2023/08/20 05:14:31;;;;;;;3.10;2.42;;;23.20;14.90;;;;;;5115929;28;20451;-50
2023/08/20 05:16:58;;;;;;;2.70;2.30;;;23.20;26.20;;;;;;5116729;28;20445;-52
2023/08/20 05:19:25;;;;;;;2.90;2.03;;;23.30;17.60;;;;;;5116078;28;20413;-50
2023/08/20 05:21:52;;;;;;;3.00;2.50;;;23.20;14.00;;;;;;5116766;28;20431;-52
2023/08/20 05:24:19;;;;;;;2.20;2.00;;;23.10;23.80;;;;;;5117491;28;20914;-52
2023/08/20 05:26:46;;;;;;;3.95;1.98;;;23.10;23.80;;;;;;5115960;28;20416;-46
2023/08/20 05:29:15;;;;;;;4.88;2.70;;;22.90;43.70;;;;;;5116815;28;20412;-52
2023/08/20 05:31:42;;;;;;;3.47;3.17;;;22.80;80.70;;;;;;5116547;28;20416;-47
2023/08/20 05:34:08;;;;;;;2.95;2.67;;;22.80;99.20;;;;;;5117077;28;20447;-52
2023/08/20 05:36:35;;;;;;;4.00;2.70;;;22.80;99.90;;;;;;5117066;28;20501;-48
2023/08/20 05:39:02;;;;;;;2.88;2.58;;;22.90;99.90;;;;;;5116669;28;20423;-48
2023/08/20 05:41:30;;;;;;;3.28;2.80;;;23.00;96.30;;;;;;5116774;28;20773;-47
2023/08/20 05:43:57;;;;;;;4.43;3.20;;;23.10;85.80;;;;;;5116301;28;20406;-48
2023/08/20 05:46:25;;;;;;;5.30;4.17;;;23.20;76.80;;;;;;5116102;28;20527;-51
2023/08/20 05:48:52;;;;;;;4.23;3.90;;;23.30;59.90;;;;;;5115547;28;20428;-52
2023/08/20 05:51:19;;;;;;;3.60;3.30;;;23.40;51.80;;;;;;5115515;28;20769;-49
2023/08/20 05:53:46;;;;;;;3.70;3.15;;;23.40;50.50;;;;;;5116363;28;20481;-51
2023/08/20 05:56:13;;;;;;;2.72;2.53;;;23.50;42.50;;;;;;5115617;28;20412;-50
2023/08/20 05:58:40;;;;;;;3.70;2.58;;;23.50;39.10;;;;;;5115839;28;20408;-50
2023/08/20 06:01:07;;;;;;;3.40;2.60;;;23.50;38.40;;;;;;5115393;27;20435;-46
2023/08/20 06:03:35;;;;;;;4.15;3.00;;;23.60;28.90;;;;;;5115338;27;20436;-52
2023/08/20 06:06:03;;;;;;;7.30;3.28;;;23.70;25.00;;;;;;5115149;28;20435;-50
2023/08/20 06:08:30;;;;;;;3.60;3.13;;;23.70;15.80;;;;;;5115400;28;20431;-52
2023/08/20 06:10:57;;;;;;;3.90;2.60;;;23.80;15.40;;;;;;5122179;27;20843;-52
2023/08/20 06:13:24;;;;;;;3.65;2.60;;;23.90;15.80;;;;;;5130895;27;20440;-47
2023/08/20 06:15:51;;;;;;;5.07;3.70;;;24.00;1.00;;;;;;5114225;28;20420;-46
2023/08/20 06:18:17;;;;;;;3.10;2.80;;;24.20;1.00;;;;;;5114159;28;20486;-48
2023/08/20 06:20:46;;;;;;;3.38;2.70;;;24.30;1.00;;;;;;5128687;27;20500;-47
2023/08/20 06:23:13;;;;;;;4.38;3.97;;;24.30;1.00;;;;;;5141164;27;20433;-46
2023/08/20 06:25:40;;;;;;;4.32;3.28;;;24.30;1.00;;;;;;5136771;27;20482;-46
2023/08/20 06:28:07;;;;;;;3.70;3.33;;;24.40;1.00;;;;;;5142460;27;20509;-51
2023/08/20 06:30:34;;;;;;;3.47;3.10;;;24.50;1.00;;;;;;5124759;27;20450;-44
2023/08/20 06:33:01;;;;;;;4.00;3.70;;;24.50;1.00;;;;;;5138975;27;20797;-51
2023/08/20 06:35:28;;;;;;;3.10;2.78;;;24.40;1.00;;;;;;5121070;27;20491;-46
2023/08/20 06:37:56;;;;;;;3.60;2.30;;;24.60;1.00;;;;;;5116813;27;20436;-46
2023/08/20 06:40:23;;;;;;;2.90;2.60;;;24.60;1.00;;;;;;5130302;27;20743;-50
2023/08/20 06:42:50;;;;;;;4.00;2.90;;;24.80;1.00;;;;;;5115536;27;20432;-45
2023/08/20 06:45:17;;;;;;;3.92;3.28;;;25.00;1.00;;;;;;5137503;27;20489;-51
2023/08/20 06:47:44;;;;;;;3.53;3.22;;;25.00;1.00;;;;;;5126266;27;20786;-49
2023/08/20 06:50:11;;;;;;;4.30;2.73;;;25.10;1.00;;;;;;5138292;27;20477;-47
2023/08/20 06:52:38;;;;;;;3.53;2.95;;;25.20;1.00;;;;;;5139618;27;20428;-52
2023/08/20 06:55:08;;;;;;;3.55;3.22;;;25.50;1.00;;;;;;5134167;27;20510;-49
2023/08/20 06:57:35;;;;;;;3.50;3.20;;;25.60;1.00;;;;;;5118355;27;20466;-50
2023/08/20 07:00:04;;;;;;;4.10;3.75;;;25.60;1.00;;;;;;5136503;27;20436;-50
2023/08/20 07:02:31;;;;;;;4.30;3.05;;;25.50;1.00;;;;;;5123956;27;20432;-47
2023/08/20 07:04:58;;;;;;;4.30;3.20;;;25.60;1.00;;;;;;5143949;27;20413;-48
2023/08/20 07:07:25;;;;;;;4.15;3.85;;;25.70;1.00;;;;;;5145793;27;20483;-51
2023/08/20 07:09:52;;;;;;;3.17;2.70;;;25.70;1.00;;;;;;5126033;27;20435;-53
2023/08/20 07:12:21;;;;;;;4.00;3.35;;;25.80;1.00;;;;;;5115653;27;20484;-51
2023/08/20 07:14:48;;;;;;;3.35;2.50;;;25.90;1.00;;;;;;5133800;27;20441;-50
2023/08/20 07:17:15;;;;;;;3.55;3.25;;;26.00;1.00;;;;;;5137611;27;20866;-49
2023/08/20 07:19:42;;;;;;;3.78;3.15;;;25.90;1.00;;;;;;5114282;27;20481;-48
2023/08/20 07:22:09;;;;;;;4.90;3.65;;;26.00;1.00;;;;;;5115631;27;20883;-50
2023/08/20 07:24:36;;;;;;;3.70;2.85;;;26.00;1.00;;;;;;5125356;27;20492;-50
2023/08/20 07:27:10;;;;;;;3.90;3.50;;;26.00;1.00;;;;;;5120081;27;20729;-51
2023/08/20 07:29:39;;;;;;;3.65;3.35;;;26.10;1.00;;;;;;5116078;27;20488;-51
2023/08/20 07:32:06;;;;;;;3.92;3.50;;;26.20;1.00;;;;;;5125424;27;20486;-51
2023/08/20 07:34:34;;;;;;;3.40;3.00;;;26.30;1.00;;;;;;5139244;27;20462;-46
2023/08/20 07:37:01;;;;;;;3.97;3.58;;;26.50;1.00;;;;;;5118765;27;20527;-46
2023/08/20 07:39:28;;;;;;;3.17;2.90;;;26.50;1.00;;;;;;5129467;27;20532;-49
2023/08/20 07:41:55;;;;;;;4.38;3.38;;;26.70;1.00;;;;;;5127340;27;20492;-49
2023/08/20 07:44:22;;;;;;;3.42;3.13;;;26.80;99.90;;;;;;5129985;27;20818;-48
2023/08/20 07:46:50;;;;;;;4.20;3.65;;;26.90;99.90;;;;;;5128644;27;20605;-52
2023/08/20 07:49:17;;;;;;;5.07;3.70;;;27.00;99.90;;;;;;5131557;27;20491;-52
2023/08/20 07:51:44;;;;;;;4.07;3.78;;;27.10;99.90;;;;;;5133927;27;20491;-51
2023/08/20 07:54:11;;;;;;;3.90;3.10;;;27.00;99.90;;;;;;5128413;27;20587;-48
2023/08/20 07:56:38;;;;;;;4.03;3.10;;;27.00;99.90;;;;;;5127711;27;20495;-47
2023/08/20 07:59:05;;;;;;;3.70;3.40;;;27.00;99.90;;;;;;5131771;27;20426;-51
2023/08/20 08:01:32;;;;;;;3.42;3.03;;;27.10;99.90;;;;;;5133873;27;20438;-52
2023/08/20 08:04:00;;;;;;;3.88;3.20;;;27.00;99.90;;;;;;5133481;27;20430;-50
2023/08/20 08:06:27;;;;;;;3.10;2.40;;;27.00;99.90;;;;;;5131876;27;20432;-49
2023/08/20 08:08:54;;;;;;;3.28;2.75;;;27.10;99.90;;;;;;5139240;27;20503;-47
2023/08/20 08:11:21;;;;;;;3.63;3.30;;;27.20;99.90;;;;;;5117349;27;20848;-47
2023/08/20 08:13:48;;;;;;;3.92;3.03;;;27.30;99.90;;;;;;5133106;27;20435;-48
2023/08/20 08:16:16;;;;;;;4.00;3.70;;;27.30;48.50;;;;;;5135958;27;20453;-50
2023/08/20 08:18:43;;;;;;;3.08;2.78;;;27.40;45.20;;;;;;5130817;27;20925;-50
2023/08/20 08:21:12;;;;;;;4.55;3.80;;;27.30;52.80;;;;;;5141187;27;20726;-52
2023/08/20 08:23:39;;;;;;;3.92;3.10;;;27.30;40.60;;;;;;5128360;27;20450;-49
2023/08/20 08:26:06;;;;;;;3.65;3.33;;;27.30;21.10;;;;;;5127050;27;20491;-48
2023/08/20 08:28:33;;;;;;;2.50;2.30;;;27.30;1.00;;;;;;5133129;27;20525;-50
2023/08/20 08:31:00;;;;;;;3.08;2.88;;;27.30;1.00;;;;;;5127106;27;20444;-52
2023/08/20 08:33:27;;;;;;;4.00;2.85;;;27.30;1.00;;;;;;5129543;27;20853;-52
2023/08/20 08:35:54;;;;;;;3.90;3.33;;;27.30;1.00;;;;;;5130361;27;20438;-50
2023/08/20 08:38:22;;;;;;;3.58;2.70;;;27.30;99.90;;;;;;5130937;27;20495;-50
2023/08/20 08:40:50;;;;;;;4.63;2.78;;;27.30;99.90;;;;;;5122728;27;20767;-47
2023/08/20 08:43:19;;;;;;;3.40;3.20;;;27.30;99.90;;;;;;5133062;27;20428;-50
2023/08/20 08:45:48;;;;;;;3.90;3.17;;;27.30;99.90;;;;;;5133568;27;20735;-52
2023/08/20 08:48:16;;;;;;;3.83;3.40;;;27.40;99.90;;;;;;5136037;27;20762;-52
2023/08/20 08:50:44;;;;;;;4.30;3.50;;;27.40;29.40;;;;;;5125195;27;20495;-50
2023/08/20 08:53:11;;;;;;;4.60;3.20;;;27.60;1.00;;;;;;5125369;27;20427;-53
2023/08/20 08:55:39;;;;;;;4.25;3.80;;;27.80;1.00;;;;;;5126024;27;20428;-51
2023/08/20 08:58:07;;;;;;;3.78;3.47;;;27.90;1.00;;;;;;5117684;27;20440;-49
2023/08/20 09:00:34;;;;;;;2.60;2.40;;;28.00;1.00;;;;;;5131144;27;20430;-51
2023/08/20 09:03:01;;;;;;;2.85;2.65;;;28.10;99.90;;;;;;5120792;27;20432;-53
2023/08/20 09:05:28;;;;;;;3.20;2.90;;;28.20;99.90;;;;;;5136298;27;20708;-52
2023/08/20 09:07:57;;;;;;;3.28;2.97;;;28.10;1.00;;;;;;5122231;27;20920;-53
2023/08/20 09:10:27;;;;;;;3.55;3.25;;;28.00;1.00;;;;;;5133039;27;20740;-48
2023/08/20 09:12:57;;;;;;;3.30;2.95;;;28.00;1.00;;;;;;5126158;27;20462;-52
2023/08/20 09:15:35;;;;;;;3.60;3.30;;;28.20;1.00;;;;;;5113882;27;20502;-49
2023/08/20 09:18:03;;;;;;;4.38;3.88;;;28.40;99.90;;;;;;5117139;27;20493;-50
2023/08/20 09:20:36;;;;;;;4.50;3.20;;;28.50;1.00;;;;;;5125026;27;21078;-53
2023/08/20 09:23:04;;;;;;;4.05;2.70;;;28.50;99.90;;;;;;5119366;27;20428;-53
2023/08/20 09:25:31;;;;;;;4.18;3.75;;;28.60;99.90;;;;;;5113730;27;20491;-52
2023/08/20 09:28:04;;;;;;;3.75;3.45;;;28.60;4.90;;;;;;5123880;27;20448;-51
2023/08/20 09:30:31;;;;;;;4.07;3.50;;;28.70;1.00;;;;;;5121927;27;20570;-50
2023/08/20 09:33:05;;;;;;;3.92;3.22;;;28.80;1.00;;;;;;5119872;27;20428;-54
2023/08/20 09:35:33;;;;;;;4.40;4.10;;;28.90;1.00;;;;;;5120986;27;20881;-47
2023/08/20 09:38:01;;;;;;;4.05;3.75;;;29.00;1.00;;;;;;5133613;27;20448;-51
2023/08/20 09:40:28;;;;;;;3.25;2.85;;;29.00;99.90;;;;;;5123581;27;20423;-52
2023/08/20 09:42:56;;;;;;;3.50;2.50;;;29.20;99.90;;;;;;5122824;27;20498;-52
2023/08/20 09:45:26;;;;;;;4.10;3.63;;;29.30;1.00;;;;;;5142079;27;20432;-52
2023/08/20 09:47:57;;;;;;;3.35;2.90;;;29.40;1.00;;;;;;5129156;27;20528;-55
2023/08/20 09:50:24;;;;;;;3.03;2.83;;;29.50;1.00;;;;;;5122993;27;20440;-50
2023/08/20 09:52:59;;;;;;;4.35;3.40;;;29.30;1.00;;;;;;5146973;27;20512;-50
2023/08/20 09:55:34;;;;;;;3.47;3.17;;;29.40;1.00;;;;;;5110761;27;21954;-51
2023/08/20 09:58:03;;;;;;;3.28;2.97;;;29.40;1.00;;;;;;5120929;27;20741;-52
2023/08/20 10:00:31;;;;;;;3.70;2.70;;;29.40;1.00;;;;;;5127477;27;20422;-53
2023/08/20 10:02:59;;;;;;;3.78;3.20;;;29.70;1.00;;;;;;5137928;27;20432;-51
2023/08/20 10:05:27;;;;;;;3.80;3.10;;;30.00;1.00;;;;;;5131867;27;20426;-53
2023/08/20 10:07:55;;;;;;;2.70;2.50;;;30.30;1.00;;;;;;5129339;27;20432;-50
2023/08/20 10:10:22;;;;;;;3.40;3.05;;;30.50;99.90;;;;;;5130030;27;20435;-53
2023/08/20 10:12:49;;;;;;;3.13;2.37;;;30.70;99.90;;;;;;5113985;27;20439;-52
2023/08/20 10:15:17;;;;;;;3.28;2.40;;;31.00;99.90;;;;;;5120797;27;20888;-52
2023/08/20 10:17:46;;;;;;;3.03;2.70;;;31.10;99.90;;;;;;5122379;27;20465;-53
2023/08/20 10:20:15;;;;;;;2.70;2.50;;;31.30;99.90;;;;;;5130275;27;20710;-49
2023/08/20 10:22:44;;;;;;;3.33;2.53;;;31.50;99.90;;;;;;5131238;27;20853;-53
2023/08/20 10:25:12;;;;;;;2.80;2.42;;;31.70;44.90;;;;;;5124973;27;20473;-48
2023/08/20 10:27:42;;;;;;;3.08;2.88;;;31.80;22.10;;;;;;5125197;27;20439;-51
2023/08/20 10:30:15;;;;;;;2.83;2.63;;;31.80;6.60;;;;;;5136966;27;20521;-54
2023/08/20 10:32:48;;;;;;;3.10;2.40;;;32.10;1.00;;;;;;5121558;27;20468;-52
2023/08/20 10:35:17;;;;;;;3.00;2.40;;;32.00;1.00;;;;;;5127228;27;20426;-49
2023/08/20 10:38:07;;;;;;;3.50;3.20;;;31.90;1.00;;;;;;5129047;27;20430;-51
2023/08/20 10:40:53;;;;;;;3.38;2.95;;;32.10;1.00;;;;;;5145141;27;20418;-47
2023/08/20 10:43:30;;;;;;;3.40;3.10;;;31.80;1.00;;;;;;5118719;27;20512;-55
2023/08/20 10:46:05;;;;;;;2.92;2.63;;;32.10;1.00;;;;;;5114415;27;20801;-53
2023/08/20 10:48:35;;;;;;;3.00;2.15;;;32.30;1.00;;;;;;5124875;27;20445;-50
2023/08/20 10:51:08;;;;;;;2.90;2.70;;;32.50;1.00;;;;;;5136061;27;20429;-53
2023/08/20 10:53:35;;;;;;;3.97;2.25;;;32.80;1.00;;;;;;5123486;27;20467;-53
2023/08/20 10:56:13;;;;;;;2.97;2.78;;;33.00;1.00;;;;;;5116352;27;20882;-50
2023/08/20 10:58:42;;;;;;;3.20;2.63;;;33.00;1.00;;;;;;5142213;27;20482;-51
2023/08/20 11:01:23;;;;;;;2.97;2.77;;;33.00;1.00;;;;;;5131984;27;20470;-50
2023/08/20 11:03:52;;;;;;;2.63;2.40;;;33.20;1.00;;;;;;5120031;27;20426;-52
2023/08/20 11:06:20;;;;;;;4.00;3.70;;;33.10;1.00;;;;;;5123341;27;20437;-52
2023/08/20 11:08:47;;;;;;;3.00;2.80;;;33.30;1.00;;;;;;5133696;27;20516;-50
2023/08/20 11:11:14;;;;;;;2.50;2.30;;;33.60;1.00;;;;;;5136815;27;20811;-51
2023/08/20 11:13:42;;;;;;;3.03;2.72;;;33.80;1.00;;;;;;5129667;27;20517;-54
2023/08/20 11:16:09;;;;;;;2.63;2.43;;;34.00;1.00;;;;;;5129556;27;20439;-48
2023/08/20 11:18:37;;;;;;;2.83;2.63;;;34.20;1.00;;;;;;5125735;28;20925;-50
2023/08/20 11:21:05;;;;;;;2.60;2.40;;;34.10;1.00;;;;;;5114539;27;20508;-48
2023/08/20 11:23:33;;;;;;;2.30;2.03;;;34.10;1.00;;;;;;5129203;27;20434;-50
2023/08/20 11:26:00;;;;;;;3.35;2.25;;;34.00;1.00;;;;;;5119765;27;20436;-51
2023/08/20 11:28:28;;;;;;;3.30;2.10;;;34.10;1.00;;;;;;5142944;27;20931;-50
2023/08/20 11:30:57;;;;;;;3.00;2.30;;;34.00;1.00;;;;;;5138941;27;20440;-52
2023/08/20 11:33:26;;;;;;;2.17;1.90;;;34.20;1.00;;;;;;5130721;27;20428;-52
2023/08/20 11:35:54;;;;;;;2.65;2.45;;;34.30;1.00;;;;;;5112553;28;20448;-53
2023/08/20 11:38:24;;;;;;;3.20;1.90;;;34.50;1.00;;;;;;5123839;27;20521;-50
2023/08/20 11:40:52;;;;;;;2.08;1.77;;;34.50;1.00;;;;;;5120788;27;20426;-49
2023/08/20 11:43:19;;;;;;;2.22;2.03;;;34.80;1.00;;;;;;5126965;27;20473;-53
2023/08/20 11:45:47;;;;;;;1.63;1.52;;;34.80;1.00;;;;;;5124309;27;20438;-52
2023/08/20 11:48:14;;;;;;;2.22;1.80;;;34.80;1.00;;;;;;5123353;27;20430;-52
2023/08/20 11:50:41;;;;;;;2.60;1.75;;;35.10;1.00;;;;;;5124910;27;20428;-56
2023/08/20 11:53:10;;;;;;;2.40;2.17;;;35.20;1.00;;;;;;5112827;28;20428;-50
2023/08/20 11:55:40;;;;;;;2.80;1.90;;;35.00;1.00;;;;;;5112234;28;20432;-52
2023/08/20 11:58:11;;;;;;;2.10;1.80;;;35.00;1.00;;;;;;5121646;27;20450;-53
2023/08/20 12:00:38;;;;;;;2.20;2.00;;;34.80;1.00;;;;;;5119027;27;20429;-53
2023/08/20 12:03:06;;;;;;;2.60;1.80;;;35.00;1.00;;;;;;5130287;27;20436;-54
2023/08/20 12:05:33;;;;;;;2.75;2.00;;;34.90;1.00;;;;;;5129497;27;20467;-50
2023/08/20 12:08:01;;;;;;;3.00;1.92;;;35.00;1.00;;;;;;5118060;27;20436;-52
2023/08/20 12:10:29;;;;;;;2.30;2.05;;;35.10;1.00;;;;;;5122503;27;20508;-54
2023/08/20 12:12:58;;;;;;;2.10;1.90;;;35.20;1.00;;;;;;5125446;27;20510;-53
2023/08/20 12:15:26;;;;;;;2.40;1.70;;;35.30;1.00;;;;;;5132827;27;20435;-52
2023/08/20 12:18:01;;;;;;;2.30;1.60;;;35.40;1.00;;;;;;5124097;27;20443;-52
2023/08/20 12:20:30;;;;;;;1.80;1.70;;;35.40;1.00;;;;;;5133595;27;20877;-54
2023/08/20 12:23:00;;;;;;;2.80;2.10;;;35.30;1.00;;;;;;5140109;27;20532;-51
2023/08/20 12:25:27;;;;;;;2.00;1.60;;;35.10;1.00;;;;;;5135527;27;20432;-52
2023/08/20 12:27:54;;;;;;;2.60;1.70;;;35.20;1.00;;;;;;5127883;27;20937;-50
2023/08/20 12:30:23;;;;;;;2.53;1.58;;;35.30;1.00;;;;;;5118872;27;21016;-54
2023/08/20 12:32:50;;;;;;;1.90;1.75;;;35.60;1.00;;;;;;5134221;27;20430;-54
2023/08/20 12:35:17;;;;;;;2.00;1.60;;;35.50;1.00;;;;;;5126090;27;20431;-49
2023/08/20 12:37:44;;;;;;;1.90;1.70;;;35.20;1.00;;;;;;5123380;27;20469;-49
2023/08/20 12:40:12;;;;;;;2.35;1.50;;;35.20;1.00;;;;;;5121358;27;20554;-52
2023/08/20 12:42:40;;;;;;;2.03;1.52;;;35.40;1.00;;;;;;5121392;27;21010;-47
2023/08/20 12:45:07;;;;;;;2.00;1.80;;;35.30;1.00;;;;;;5118969;27;20920;-55
2023/08/20 12:47:36;;;;;;;1.92;1.60;;;35.20;1.00;;;;;;5121885;27;20510;-53
2023/08/20 12:50:04;;;;;;;1.80;1.70;;;35.30;1.00;;;;;;5115234;28;20431;-53
2023/08/20 12:52:31;;;;;;;1.83;1.70;;;35.10;1.00;;;;;;5126297;27;20430;-50
2023/08/20 12:54:58;;;;;;;2.22;1.52;;;34.80;1.00;;;;;;5124905;27;20865;-54
2023/08/20 12:57:25;;;;;;;2.15;1.40;;;34.90;1.00;;;;;;5124534;27;20491;-53